sensor_id;sensor_type;location;lat;lon;timestamp;pressure;altitude;pressure_sealevel;temperature;humidity
25238;BME280;13185;50.872;5.306;2022-09-29T00:00:08;99679.84;;;6.17;100.00
25238;BME280;13185;50.872;5.306;2022-09-29T00:02:33;99674.81;;;6.13;100.00
25238;BME280;13185;50.872;5.306;2022-09-29T00:04:59;99675.00;;;6.10;100.00
25238;BME280;13185;50.872;5.306;2022-09-29T00:07:24;99677.13;;;6.04;100.00
25238;BME280;13185;50.872;5.306;2022-09-29T00:09:49;99677.03;;;6.06;100.00
25238;BME280;13185;50.872;5.306;2022-09-29T00:12:15;99681.50;;;6.05;100.00
25238;BME280;13185;50.872;5.306;2022-09-29T00:14:40;99677.88;;;6.06;100.00
25238;BME280;13185;50.872;5.306;2022-09-29T00:17:05;99677.03;;;6.06;100.00
25238;BME280;13185;50.872;5.306;2022-09-29T00:19:31;99677.03;;;6.06;100.00
25238;BME280;13185;50.872;5.306;2022-09-29T00:21:58;99675.31;;;6.05;100.00
25238;BME280;13185;50.872;5.306;2022-09-29T00:24:23;99669.16;;;6.04;100.00
25238;BME280;13185;50.872;5.306;2022-09-29T00:26:49;99667.41;;;6.03;100.00
25238;BME280;13185;50.872;5.306;2022-09-29T00:29:14;99667.53;;;6.02;100.00
25238;BME280;13185;50.872;5.306;2022-09-29T00:31:40;99675.72;;;5.99;100.00
25238;BME280;13185;50.872;5.306;2022-09-29T00:34:05;99670.69;;;5.94;100.00
25238;BME280;13185;50.872;5.306;2022-09-29T00:36:31;99676.09;;;5.93;100.00
25238;BME280;13185;50.872;5.306;2022-09-29T00:38:57;99668.22;;;5.91;100.00
25238;BME280;13185;50.872;5.306;2022-09-29T00:41:29;99670.03;;;5.91;100.00
25238;BME280;13185;50.872;5.306;2022-09-29T00:44:00;99673.72;;;5.88;100.00
25238;BME280;13185;50.872;5.306;2022-09-29T00:46:45;99667.75;;;5.85;100.00
25238;BME280;13185;50.872;5.306;2022-09-29T00:49:32;99673.25;;;5.82;100.00
25238;BME280;13185;50.872;5.306;2022-09-29T00:52:07;99671.94;;;5.74;100.00
25238;BME280;13185;50.872;5.306;2022-09-29T00:54:39;99680.88;;;5.73;100.00
25238;BME280;13185;50.872;5.306;2022-09-29T00:57:07;99679.25;;;5.71;100.00
25238;BME280;13185;50.872;5.306;2022-09-29T00:59:45;99676.78;;;5.68;100.00
25238;BME280;13185;50.872;5.306;2022-09-29T01:02:14;99683.81;;;5.69;100.00
25238;BME280;13185;50.872;5.306;2022-09-29T01:04:41;99690.09;;;5.68;100.00
25238;BME280;13185;50.872;5.306;2022-09-29T01:07:08;99676.03;;;5.66;100.00
25238;BME280;13185;50.872;5.306;2022-09-29T01:09:37;99674.34;;;5.65;100.00
25238;BME280;13185;50.872;5.306;2022-09-29T01:12:03;99681.63;;;5.61;100.00
25238;BME280;13185;50.872;5.306;2022-09-29T01:14:30;99678.31;;;5.58;100.00
25238;BME280;13185;50.872;5.306;2022-09-29T01:16:56;99678.41;;;5.56;100.00
25238;BME280;13185;50.872;5.306;2022-09-29T01:22:27;99673.47;;;5.50;100.00
25238;BME280;13185;50.872;5.306;2022-09-29T01:28:50;99686.00;;;5.48;100.00
25238;BME280;13185;50.872;5.306;2022-09-29T01:31:30;99687.06;;;5.45;100.00
25238;BME280;13185;50.872;5.306;2022-09-29T01:41:57;99681.94;;;5.28;100.00
25238;BME280;13185;50.872;5.306;2022-09-29T01:44:36;99679.56;;;5.24;100.00
25238;BME280;13185;50.872;5.306;2022-09-29T01:47:10;99679.84;;;5.19;100.00
25238;BME280;13185;50.872;5.306;2022-09-29T01:49:44;99686.19;;;5.16;100.00
25238;BME280;13185;50.872;5.306;2022-09-29T01:52:27;99687.16;;;5.15;100.00
25238;BME280;13185;50.872;5.306;2022-09-29T01:55:17;99680.22;;;5.13;100.00
25238;BME280;13185;50.872;5.306;2022-09-29T01:57:52;99688.19;;;5.13;100.00
25238;BME280;13185;50.872;5.306;2022-09-29T02:00:20;99683.91;;;5.10;100.00
25238;BME280;13185;50.872;5.306;2022-09-29T02:06:03;99695.13;;;5.01;100.00
25238;BME280;13185;50.872;5.306;2022-09-29T02:08:41;99691.59;;;5.01;100.00
25238;BME280;13185;50.872;5.306;2022-09-29T02:11:09;99685.34;;;5.02;100.00
25238;BME280;13185;50.872;5.306;2022-09-29T02:14:00;99681.91;;;5.00;100.00
25238;BME280;13185;50.872;5.306;2022-09-29T02:16:37;99686.34;;;4.99;100.00
25238;BME280;13185;50.872;5.306;2022-09-29T02:19:09;99689.88;;;5.00;100.00
25238;BME280;13185;50.872;5.306;2022-09-29T02:21:37;99684.75;;;4.97;100.00
25238;BME280;13185;50.872;5.306;2022-09-29T02:24:03;99691.88;;;4.96;100.00
25238;BME280;13185;50.872;5.306;2022-09-29T02:26:31;99690.16;;;4.95;100.00
25238;BME280;13185;50.872;5.306;2022-09-29T02:29:02;99701.06;;;4.90;100.00
25238;BME280;13185;50.872;5.306;2022-09-29T02:31:29;99690.59;;;4.87;100.00
25238;BME280;13185;50.872;5.306;2022-09-29T02:33:55;99696.03;;;4.86;100.00
25238;BME280;13185;50.872;5.306;2022-09-29T02:36:41;99696.13;;;4.84;100.00
25238;BME280;13185;50.872;5.306;2022-09-29T02:39:19;99691.94;;;4.80;100.00
25238;BME280;13185;50.872;5.306;2022-09-29T02:45:00;99695.63;;;4.78;100.00
25238;BME280;13185;50.872;5.306;2022-09-29T02:47:54;99684.31;;;4.74;100.00
25238;BME280;13185;50.872;5.306;2022-09-29T02:50:47;99678.91;;;4.76;100.00
25238;BME280;13185;50.872;5.306;2022-09-29T02:56:17;99685.28;;;4.73;100.00
25238;BME280;13185;50.872;5.306;2022-09-29T03:01:18;99681.84;;;4.71;100.00
25238;BME280;13185;50.872;5.306;2022-09-29T03:03:43;99684.53;;;4.71;100.00
25238;BME280;13185;50.872;5.306;2022-09-29T03:06:10;99672.25;;;4.69;100.00
25238;BME280;13185;50.872;5.306;2022-09-29T03:08:36;99684.69;;;4.68;100.00
25238;BME280;13185;50.872;5.306;2022-09-29T03:11:01;99685.72;;;4.66;100.00
25238;BME280;13185;50.872;5.306;2022-09-29T03:13:27;99682.22;;;4.65;100.00
25238;BME280;13185;50.872;5.306;2022-09-29T03:15:52;99677.00;;;4.63;100.00
25238;BME280;13185;50.872;5.306;2022-09-29T03:18:17;99684.97;;;4.63;100.00
25238;BME280;13185;50.872;5.306;2022-09-29T03:20:43;99674.44;;;4.62;100.00
25238;BME280;13185;50.872;5.306;2022-09-29T03:23:08;99684.31;;;4.60;100.00
25238;BME280;13185;50.872;5.306;2022-09-29T03:25:34;99683.50;;;4.58;100.00
25238;BME280;13185;50.872;5.306;2022-09-29T03:27:59;99680.94;;;4.56;100.00
25238;BME280;13185;50.872;5.306;2022-09-29T03:30:25;99683.78;;;4.53;100.00
25238;BME280;13185;50.872;5.306;2022-09-29T03:32:50;99675.06;;;4.51;100.00
25238;BME280;13185;50.872;5.306;2022-09-29T03:35:16;99677.72;;;4.51;100.00
25238;BME280;13185;50.872;5.306;2022-09-29T03:37:41;99690.31;;;4.48;100.00
25238;BME280;13185;50.872;5.306;2022-09-29T03:40:07;99688.59;;;4.47;100.00
25238;BME280;13185;50.872;5.306;2022-09-29T03:42:33;99690.41;;;4.46;100.00
25238;BME280;13185;50.872;5.306;2022-09-29T03:44:58;99687.75;;;4.46;100.00
25238;BME280;13185;50.872;5.306;2022-09-29T03:47:24;99683.38;;;4.45;100.00
25238;BME280;13185;50.872;5.306;2022-09-29T03:49:49;99695.88;;;4.43;100.00
25238;BME280;13185;50.872;5.306;2022-09-29T03:52:15;99695.03;;;4.43;100.00
25238;BME280;13185;50.872;5.306;2022-09-29T03:54:40;99701.28;;;4.42;100.00
25238;BME280;13185;50.872;5.306;2022-09-29T03:57:06;99693.41;;;4.40;100.00
25238;BME280;13185;50.872;5.306;2022-09-29T03:59:31;99695.31;;;4.38;100.00
25238;BME280;13185;50.872;5.306;2022-09-29T04:01:57;99695.31;;;4.38;100.00
25238;BME280;13185;50.872;5.306;2022-09-29T04:04:22;99703.34;;;4.37;100.00
25238;BME280;13185;50.872;5.306;2022-09-29T04:06:47;99699.16;;;4.32;100.00
25238;BME280;13185;50.872;5.306;2022-09-29T04:09:13;99694.91;;;4.30;100.00
25238;BME280;13185;50.872;5.306;2022-09-29T04:11:38;99696.69;;;4.29;100.00
25238;BME280;13185;50.872;5.306;2022-09-29T04:14:04;99699.44;;;4.28;100.00
25238;BME280;13185;50.872;5.306;2022-09-29T04:16:30;99700.28;;;4.28;100.00
25238;BME280;13185;50.872;5.306;2022-09-29T04:18:55;99703.09;;;4.25;100.00
25238;BME280;13185;50.872;5.306;2022-09-29T04:21:21;99702.34;;;4.23;100.00
25238;BME280;13185;50.872;5.306;2022-09-29T04:23:46;99707.84;;;4.20;100.00
25238;BME280;13185;50.872;5.306;2022-09-29T04:26:12;99708.03;;;4.17;100.00
25238;BME280;13185;50.872;5.306;2022-09-29T04:28:39;99705.50;;;4.14;100.00
25238;BME280;13185;50.872;5.306;2022-09-29T04:31:05;99710.06;;;4.12;100.00
25238;BME280;13185;50.872;5.306;2022-09-29T04:33:31;99704.84;;;4.11;100.00
25238;BME280;13185;50.872;5.306;2022-09-29T04:35:57;99705.78;;;4.10;100.00
25238;BME280;13185;50.872;5.306;2022-09-29T04:38:23;99707.59;;;4.09;100.00
25238;BME280;13185;50.872;5.306;2022-09-29T04:40:50;99703.22;;;4.08;100.00
25238;BME280;13185;50.872;5.306;2022-09-29T04:43:15;99710.38;;;4.06;100.00
25238;BME280;13185;50.872;5.306;2022-09-29T04:45:41;99706.03;;;4.05;100.00
25238;BME280;13185;50.872;5.306;2022-09-29T04:48:06;99706.22;;;4.02;100.00
25238;BME280;13185;50.872;5.306;2022-09-29T04:50:32;99712.47;;;4.01;100.00
25238;BME280;13185;50.872;5.306;2022-09-29T04:52:58;99714.44;;;3.97;100.00
25238;BME280;13185;50.872;5.306;2022-09-29T04:55:23;99722.41;;;3.97;100.00
25238;BME280;13185;50.872;5.306;2022-09-29T04:57:49;99711.84;;;3.96;100.00
25238;BME280;13185;50.872;5.306;2022-09-29T05:00:15;99710.31;;;3.92;100.00
25238;BME280;13185;50.872;5.306;2022-09-29T05:02:40;99719.97;;;3.93;100.00
25238;BME280;13185;50.872;5.306;2022-09-29T05:05:06;99714.00;;;3.89;100.00
25238;BME280;13185;50.872;5.306;2022-09-29T05:07:36;99720.25;;;3.88;100.00
25238;BME280;13185;50.872;5.306;2022-09-29T05:10:03;99721.19;;;3.87;100.00
25238;BME280;13185;50.872;5.306;2022-09-29T05:12:29;99723.94;;;3.86;100.00
25238;BME280;13185;50.872;5.306;2022-09-29T05:14:54;99723.94;;;3.86;100.00
25238;BME280;13185;50.872;5.306;2022-09-29T05:17:20;99724.00;;;3.84;100.00
25238;BME280;13185;50.872;5.306;2022-09-29T05:19:45;99731.09;;;3.84;100.00
25238;BME280;13185;50.872;5.306;2022-09-29T05:22:11;99731.19;;;3.82;100.00
25238;BME280;13185;50.872;5.306;2022-09-29T05:24:36;99730.34;;;3.82;100.00
25238;BME280;13185;50.872;5.306;2022-09-29T05:27:02;99735.63;;;3.82;100.00
25238;BME280;13185;50.872;5.306;2022-09-29T05:29:27;99738.38;;;3.80;100.00
25238;BME280;13185;50.872;5.306;2022-09-29T05:31:53;99734.00;;;3.79;100.00
25238;BME280;13185;50.872;5.306;2022-09-29T05:34:19;99741.13;;;3.79;100.00
25238;BME280;13185;50.872;5.306;2022-09-29T05:36:44;99743.78;;;3.79;100.00
25238;BME280;13185;50.872;5.306;2022-09-29T05:39:10;99746.50;;;3.77;100.00
25238;BME280;13185;50.872;5.306;2022-09-29T05:41:35;99748.31;;;3.76;100.00
25238;BME280;13185;50.872;5.306;2022-09-29T05:44:01;99757.13;;;3.77;100.00
25238;BME280;13185;50.872;5.306;2022-09-29T05:46:27;99759.84;;;3.75;100.00
25238;BME280;13185;50.872;5.306;2022-09-29T05:48:53;99757.25;;;3.74;100.00
25238;BME280;13185;50.872;5.306;2022-09-29T05:51:20;99763.38;;;3.76;100.00
25238;BME280;13185;50.872;5.306;2022-09-29T05:53:47;99766.94;;;3.75;100.00
25238;BME280;13185;50.872;5.306;2022-09-29T05:56:15;99763.41;;;3.74;100.00
25238;BME280;13185;50.872;5.306;2022-09-29T05:58:41;99775.78;;;3.75;100.00
25238;BME280;13185;50.872;5.306;2022-09-29T06:01:12;99769.53;;;3.76;100.00
25238;BME280;13185;50.872;5.306;2022-09-29T06:03:38;99773.88;;;3.78;100.00
25238;BME280;13185;50.872;5.306;2022-09-29T06:06:05;99780.13;;;3.76;100.00
25238;BME280;13185;50.872;5.306;2022-09-29T06:08:31;99773.88;;;3.78;100.00
25238;BME280;13185;50.872;5.306;2022-09-29T06:11:08;99782.69;;;3.78;100.00
25238;BME280;13185;50.872;5.306;2022-09-29T06:13:42;99784.41;;;3.79;100.00
25238;BME280;13185;50.872;5.306;2022-09-29T06:16:09;99782.53;;;3.81;100.00
25238;BME280;13185;50.872;5.306;2022-09-29T06:18:35;99777.13;;;3.83;100.00
25238;BME280;13185;50.872;5.306;2022-09-29T06:23:27;99777.66;;;3.89;100.00
25238;BME280;13185;50.872;5.306;2022-09-29T06:25:57;99774.75;;;3.94;100.00
25238;BME280;13185;50.872;5.306;2022-09-29T06:28:23;99781.72;;;3.96;100.00
25238;BME280;13185;50.872;5.306;2022-09-29T06:30:50;99781.53;;;3.99;100.00
25238;BME280;13185;50.872;5.306;2022-09-29T06:33:15;99791.88;;;4.04;100.00
25238;BME280;13185;50.872;5.306;2022-09-29T06:35:47;99788.13;;;4.08;100.00
25238;BME280;13185;50.872;5.306;2022-09-29T06:38:32;99798.47;;;4.13;100.00
25238;BME280;13185;50.872;5.306;2022-09-29T06:40:58;99791.13;;;4.18;100.00
25238;BME280;13185;50.872;5.306;2022-09-29T06:43:23;99804.91;;;4.24;100.00
25238;BME280;13185;50.872;5.306;2022-09-29T06:45:49;99806.38;;;4.30;100.00
25238;BME280;13185;50.872;5.306;2022-09-29T06:48:14;99812.13;;;4.38;100.00
25238;BME280;13185;50.872;5.306;2022-09-29T06:50:39;99811.75;;;4.44;100.00
25238;BME280;13185;50.872;5.306;2022-09-29T06:53:05;99808.88;;;4.49;100.00
25238;BME280;13185;50.872;5.306;2022-09-29T06:55:31;99804.22;;;4.52;100.00
25238;BME280;13185;50.872;5.306;2022-09-29T06:57:56;99808.31;;;4.58;100.00
25238;BME280;13185;50.872;5.306;2022-09-29T07:00:22;99810.63;;;4.64;100.00
25238;BME280;13185;50.872;5.306;2022-09-29T07:02:47;99809.34;;;4.71;100.00
25238;BME280;13185;50.872;5.306;2022-09-29T07:05:13;99810.78;;;4.77;100.00
25238;BME280;13185;50.872;5.306;2022-09-29T07:07:39;99813.09;;;4.83;100.00
25238;BME280;13185;50.872;5.306;2022-09-29T07:10:04;99812.56;;;4.92;100.00
25238;BME280;13185;50.872;5.306;2022-09-29T07:12:30;99805.06;;;4.99;100.00
25238;BME280;13185;50.872;5.306;2022-09-29T07:14:55;99812.59;;;5.06;100.00
25238;BME280;13185;50.872;5.306;2022-09-29T07:17:21;99807.91;;;5.11;100.00
25238;BME280;13185;50.872;5.306;2022-09-29T07:19:46;99811.78;;;5.20;100.00
25238;BME280;13185;50.872;5.306;2022-09-29T07:22:12;99810.59;;;5.26;100.00
25238;BME280;13185;50.872;5.306;2022-09-29T07:24:37;99810.22;;;5.32;100.00
25238;BME280;13185;50.872;5.306;2022-09-29T07:27:02;99811.53;;;5.39;100.00
25238;BME280;13185;50.872;5.306;2022-09-29T07:29:28;99814.72;;;5.45;100.00
25238;BME280;13185;50.872;5.306;2022-09-29T07:31:58;99813.97;;;5.58;100.00
25238;BME280;13185;50.872;5.306;2022-09-29T07:34:23;99810.34;;;5.73;100.00
25238;BME280;13185;50.872;5.306;2022-09-29T07:36:49;99819.56;;;5.82;100.00
25238;BME280;13185;50.872;5.306;2022-09-29T07:39:15;99818.78;;;5.95;100.00
25238;BME280;13185;50.872;5.306;2022-09-29T07:41:41;99822.47;;;6.07;100.00
25238;BME280;13185;50.872;5.306;2022-09-29T07:44:06;99827.69;;;6.23;100.00
25238;BME280;13185;50.872;5.306;2022-09-29T07:46:32;99829.47;;;6.36;100.00
25238;BME280;13185;50.872;5.306;2022-09-29T07:48:57;99820.28;;;6.55;100.00
25238;BME280;13185;50.872;5.306;2022-09-29T07:51:22;99820.06;;;6.72;100.00
25238;BME280;13185;50.872;5.306;2022-09-29T07:53:48;99823.63;;;6.85;100.00
25238;BME280;13185;50.872;5.306;2022-09-29T07:56:18;99828.56;;;6.91;100.00
25238;BME280;13185;50.872;5.306;2022-09-29T07:58:45;99826.03;;;7.03;100.00
25238;BME280;13185;50.872;5.306;2022-09-29T08:01:12;99831.63;;;7.25;100.00
25238;BME280;13185;50.872;5.306;2022-09-29T08:03:39;99836.75;;;7.28;100.00
25238;BME280;13185;50.872;5.306;2022-09-29T08:06:09;99834.53;;;7.35;100.00
25238;BME280;13185;50.872;5.306;2022-09-29T08:08:35;99841.41;;;7.51;100.00
25238;BME280;13185;50.872;5.306;2022-09-29T08:11:03;99843.66;;;7.70;100.00
25238;BME280;13185;50.872;5.306;2022-09-29T08:13:29;99842.06;;;7.80;100.00
25238;BME280;13185;50.872;5.306;2022-09-29T08:16:00;99844.66;;;7.82;100.00
25238;BME280;13185;50.872;5.306;2022-09-29T08:18:26;99850.91;;;7.81;100.00
25238;BME280;13185;50.872;5.306;2022-09-29T08:20:52;99848.25;;;7.81;100.00
25238;BME280;13185;50.872;5.306;2022-09-29T08:23:21;99850.59;;;7.86;100.00
25238;BME280;13185;50.872;5.306;2022-09-29T08:25:48;99845.25;;;8.11;100.00
25238;BME280;13185;50.872;5.306;2022-09-29T08:28:13;99850.25;;;8.28;100.00
25238;BME280;13185;50.872;5.306;2022-09-29T08:30:39;99848.03;;;8.35;100.00
25238;BME280;13185;50.872;5.306;2022-09-29T08:33:05;99851.84;;;8.31;100.00
25238;BME280;13185;50.872;5.306;2022-09-29T08:35:36;99855.50;;;8.43;100.00
25238;BME280;13185;50.872;5.306;2022-09-29T08:38:02;99852.53;;;8.71;100.00
25238;BME280;13185;50.872;5.306;2022-09-29T08:40:28;99849.94;;;8.82;100.00
25238;BME280;13185;50.872;5.306;2022-09-29T08:43:08;99855.97;;;8.97;100.00
25238;BME280;13185;50.872;5.306;2022-09-29T08:45:40;99863.09;;;9.09;100.00
25238;BME280;13185;50.872;5.306;2022-09-29T08:48:23;99863.03;;;9.22;100.00
25238;BME280;13185;50.872;5.306;2022-09-29T08:50:53;99861.13;;;9.35;100.00
25238;BME280;13185;50.872;5.306;2022-09-29T08:53:22;99872.50;;;9.50;100.00
25238;BME280;13185;50.872;5.306;2022-09-29T08:55:52;99870.00;;;9.60;100.00
25238;BME280;13185;50.872;5.306;2022-09-29T08:58:19;99878.50;;;9.65;100.00
25238;BME280;13185;50.872;5.306;2022-09-29T09:01:13;99877.94;;;9.72;100.00
25238;BME280;13185;50.872;5.306;2022-09-29T09:14:51;99878.56;;;9.98;100.00
25238;BME280;13185;50.872;5.306;2022-09-29T09:22:58;99892.66;;;10.24;100.00
25238;BME280;13185;50.872;5.306;2022-09-29T09:25:33;99886.31;;;10.25;100.00
25238;BME280;13185;50.872;5.306;2022-09-29T09:28:13;99884.50;;;10.37;100.00
25238;BME280;13185;50.872;5.306;2022-09-29T09:30:56;99889.59;;;10.51;100.00
25238;BME280;13185;50.872;5.306;2022-09-29T09:33:45;99880.09;;;10.69;100.00
25238;BME280;13185;50.872;5.306;2022-09-29T09:36:30;99885.19;;;10.95;100.00
25238;BME280;13185;50.872;5.306;2022-09-29T09:39:14;99886.25;;;11.04;100.00
25238;BME280;13185;50.872;5.306;2022-09-29T09:41:43;99882.81;;;11.13;97.80
25238;BME280;13185;50.872;5.306;2022-09-29T09:44:14;99885.13;;;11.17;97.94
25238;BME280;13185;50.872;5.306;2022-09-29T09:49:38;99890.91;;;11.34;95.10
25238;BME280;13185;50.872;5.306;2022-09-29T09:52:13;99892.19;;;11.50;96.94
25238;BME280;13185;50.872;5.306;2022-09-29T09:54:47;99895.44;;;11.33;90.84
25238;BME280;13185;50.872;5.306;2022-09-29T10:00:12;99898.66;;;11.16;88.97
25238;BME280;13185;50.872;5.306;2022-09-29T10:02:49;99888.28;;;11.11;91.15
25238;BME280;13185;50.872;5.306;2022-09-29T10:05:17;99894.06;;;11.07;89.69
25238;BME280;13185;50.872;5.306;2022-09-29T10:07:44;99901.00;;;11.09;90.82
25238;BME280;13185;50.872;5.306;2022-09-29T10:10:18;99902.03;;;11.29;91.03
25238;BME280;13185;50.872;5.306;2022-09-29T10:12:46;99897.44;;;11.52;89.69
25238;BME280;13185;50.872;5.306;2022-09-29T10:15:20;99895.25;;;11.46;88.94
25238;BME280;13185;50.872;5.306;2022-09-29T10:17:55;99894.53;;;11.44;87.01
25238;BME280;13185;50.872;5.306;2022-09-29T10:20:49;99900.59;;;11.57;88.91
25238;BME280;13185;50.872;5.306;2022-09-29T10:23:33;99898.28;;;11.52;88.57
25238;BME280;13185;50.872;5.306;2022-09-29T10:28:27;99909.34;;;11.38;87.31
25238;BME280;13185;50.872;5.306;2022-09-29T10:30:54;99910.53;;;11.34;86.54
25238;BME280;13185;50.872;5.306;2022-09-29T10:33:22;99901.63;;;11.34;86.97
25238;BME280;13185;50.872;5.306;2022-09-29T10:35:50;99908.22;;;11.41;86.69
25238;BME280;13185;50.872;5.306;2022-09-29T10:38:27;99914.25;;;11.54;87.99
25238;BME280;13185;50.872;5.306;2022-09-29T10:40:57;99908.59;;;11.68;87.57
25238;BME280;13185;50.872;5.306;2022-09-29T10:43:34;99917.22;;;11.83;83.90
25238;BME280;13185;50.872;5.306;2022-09-29T10:46:00;99916.31;;;11.94;83.88
25238;BME280;13185;50.872;5.306;2022-09-29T10:48:26;99901.94;;;12.04;83.86
25238;BME280;13185;50.872;5.306;2022-09-29T10:51:00;99903.19;;;12.21;85.11
25238;BME280;13185;50.872;5.306;2022-09-29T10:55:57;99907.47;;;12.54;81.01
25238;BME280;13185;50.872;5.306;2022-09-29T10:58:33;99900.81;;;12.58;79.68
25238;BME280;13185;50.872;5.306;2022-09-29T11:01:08;99911.59;;;12.68;81.02
25238;BME280;13185;50.872;5.306;2022-09-29T11:03:38;99911.06;;;12.74;80.20
25238;BME280;13185;50.872;5.306;2022-09-29T11:06:08;99916.78;;;12.90;80.42
25238;BME280;13185;50.872;5.306;2022-09-29T11:11:21;99919.09;;;13.05;76.98
25238;BME280;13185;50.872;5.306;2022-09-29T11:13:48;99925.47;;;13.04;77.15
25238;BME280;13185;50.872;5.306;2022-09-29T11:16:16;99912.75;;;13.15;75.71
25238;BME280;13185;50.872;5.306;2022-09-29T11:18:48;99912.66;;;13.26;74.28
25238;BME280;13185;50.872;5.306;2022-09-29T12:04:58;99947.00;;;14.02;67.57
25238;BME280;13185;50.872;5.306;2022-09-29T12:07:44;99945.41;;;14.19;68.11
25238;BME280;13185;50.872;5.306;2022-09-29T12:13:39;99941.13;;;14.45;67.51
25238;BME280;13185;50.872;5.306;2022-09-29T12:16:31;99944.47;;;14.57;66.87
25238;BME280;13185;50.872;5.306;2022-09-29T12:19:14;99940.47;;;14.70;67.25
25238;BME280;13185;50.872;5.306;2022-09-29T12:21:51;99937.13;;;14.86;65.83
25238;BME280;13185;50.872;5.306;2022-09-29T12:26:51;99935.13;;;14.88;64.10
25238;BME280;13185;50.872;5.306;2022-09-29T12:31:52;99936.94;;;14.97;64.67
25238;BME280;13185;50.872;5.306;2022-09-29T12:37:11;99939.31;;;15.00;64.14
25238;BME280;13185;50.872;5.306;2022-09-29T12:40:02;99943.47;;;14.95;64.04
25238;BME280;13185;50.872;5.306;2022-09-29T12:50:50;99947.19;;;14.94;63.94
25238;BME280;13185;50.872;5.306;2022-09-29T12:53:24;99946.09;;;15.14;63.63
25238;BME280;13185;50.872;5.306;2022-09-29T12:55:57;99941.47;;;15.42;63.15
25238;BME280;13185;50.872;5.306;2022-09-29T13:01:30;99937.28;;;16.11;61.97
25238;BME280;13185;50.872;5.306;2022-09-29T13:04:31;99933.69;;;16.28;60.90
25238;BME280;13185;50.872;5.306;2022-09-29T13:07:16;99943.41;;;16.39;59.52
25238;BME280;13185;50.872;5.306;2022-09-29T13:10:19;99941.72;;;16.46;58.33
25238;BME280;13185;50.872;5.306;2022-09-29T13:16:01;99938.56;;;16.51;56.17
25238;BME280;13185;50.872;5.306;2022-09-29T13:29:56;99939.81;;;16.64;58.63
25238;BME280;13185;50.872;5.306;2022-09-29T13:32:22;99933.91;;;16.95;58.17
25238;BME280;13185;50.872;5.306;2022-09-29T13:34:59;99935.56;;;17.22;57.74
25238;BME280;13185;50.872;5.306;2022-09-29T13:37:30;99944.25;;;17.42;58.58
25238;BME280;13185;50.872;5.306;2022-09-29T13:39:59;99952.25;;;17.51;57.11
25238;BME280;13185;50.872;5.306;2022-09-29T13:42:42;99944.44;;;17.56;56.65
25238;BME280;13185;50.872;5.306;2022-09-29T13:45:35;99956.81;;;17.59;55.88
25238;BME280;13185;50.872;5.306;2022-09-29T13:50:44;99950.13;;;17.21;54.94
25238;BME280;13185;50.872;5.306;2022-09-29T13:53:35;99954.19;;;17.25;54.47
25238;BME280;13185;50.872;5.306;2022-09-29T13:58:35;99959.66;;;17.49;54.36
25238;BME280;13185;50.872;5.306;2022-09-29T14:01:08;99956.81;;;17.51;54.27
25238;BME280;13185;50.872;5.306;2022-09-29T14:06:17;99967.31;;;17.54;52.33
25238;BME280;13185;50.872;5.306;2022-09-29T14:11:36;99962.09;;;17.69;52.88
25238;BME280;13185;50.872;5.306;2022-09-29T14:14:14;99969.94;;;17.72;52.96
25238;BME280;13185;50.872;5.306;2022-09-29T14:22:01;99978.03;;;17.64;49.91
25238;BME280;13185;50.872;5.306;2022-09-29T14:30:12;99987.47;;;17.43;49.77
25238;BME280;13185;50.872;5.306;2022-09-29T14:37:44;99992.13;;;16.91;50.80
25238;BME280;13185;50.872;5.306;2022-09-29T14:40:15;99993.78;;;16.84;51.80
25238;BME280;13185;50.872;5.306;2022-09-29T14:45:39;100002.94;;;16.65;54.70
25238;BME280;13185;50.872;5.306;2022-09-29T14:48:37;100004.91;;;16.55;55.43
25238;BME280;13185;50.872;5.306;2022-09-29T14:51:30;100010.09;;;16.48;56.13
25238;BME280;13185;50.872;5.306;2022-09-29T14:54:32;100009.34;;;16.38;57.19
25238;BME280;13185;50.872;5.306;2022-09-29T14:57:11;100007.09;;;16.33;57.08
25238;BME280;13185;50.872;5.306;2022-09-29T14:59:55;100009.81;;;16.33;57.32
25238;BME280;13185;50.872;5.306;2022-09-29T15:02:27;100022.16;;;16.36;57.50
25238;BME280;13185;50.872;5.306;2022-09-29T15:04:54;100018.63;;;16.35;57.53
25238;BME280;13185;50.872;5.306;2022-09-29T15:07:25;100021.47;;;16.34;57.02
25238;BME280;13185;50.872;5.306;2022-09-29T15:09:56;100014.28;;;16.42;58.04
25238;BME280;13185;50.872;5.306;2022-09-29T15:14:51;100018.47;;;16.81;55.56
25238;BME280;13185;50.872;5.306;2022-09-29T15:23:10;100016.81;;;17.14;54.20
25238;BME280;13185;50.872;5.306;2022-09-29T15:25:44;100019.59;;;17.30;54.40
25238;BME280;13185;50.872;5.306;2022-09-29T15:28:15;100017.44;;;17.42;54.45
25238;BME280;13185;50.872;5.306;2022-09-29T15:30:42;100018.66;;;17.55;53.75
25238;BME280;13185;50.872;5.306;2022-09-29T15:33:28;100019.72;;;17.63;52.29
25238;BME280;13185;50.872;5.306;2022-09-29T15:36:04;100022.81;;;17.76;53.31
25238;BME280;13185;50.872;5.306;2022-09-29T15:38:36;100017.09;;;17.87;52.73
25238;BME280;13185;50.872;5.306;2022-09-29T15:41:13;100021.84;;;18.01;53.46
25238;BME280;13185;50.872;5.306;2022-09-29T15:46:39;100021.53;;;18.21;52.22
25238;BME280;13185;50.872;5.306;2022-09-29T15:49:09;100025.94;;;18.30;51.72
25238;BME280;13185;50.872;5.306;2022-09-29T15:51:36;100025.44;;;18.34;50.90
25238;BME280;13185;50.872;5.306;2022-09-29T15:54:02;100032.91;;;18.32;49.57
25238;BME280;13185;50.872;5.306;2022-09-29T15:56:35;100037.31;;;18.17;49.17
25238;BME280;13185;50.872;5.306;2022-09-29T15:59:37;100037.94;;;17.86;49.23
25238;BME280;13185;50.872;5.306;2022-09-29T16:02:04;100041.72;;;17.59;49.45
25238;BME280;13185;50.872;5.306;2022-09-29T16:04:32;100041.78;;;17.34;50.11
25238;BME280;13185;50.872;5.306;2022-09-29T16:06:57;100053.72;;;17.15;51.30
25238;BME280;13185;50.872;5.306;2022-09-29T16:09:23;100055.63;;;16.96;52.58
25238;BME280;13185;50.872;5.306;2022-09-29T16:11:49;100059.09;;;16.81;53.88
25238;BME280;13185;50.872;5.306;2022-09-29T16:14:25;100067.91;;;16.65;54.99
25238;BME280;13185;50.872;5.306;2022-09-29T16:16:52;100071.19;;;16.51;55.56